createdAt,value
2018-04-08T00:00:57.438Z,12.70
2018-04-08T00:01:57.433Z,13.40
2018-04-08T00:02:57.434Z,13.90
2018-04-08T00:03:57.419Z,12.80
2018-04-08T00:04:57.416Z,13.10
2018-04-08T00:05:57.408Z,12.70
2018-04-08T00:06:57.403Z,11.80
2018-04-08T00:07:57.396Z,12.30
2018-04-08T00:08:57.390Z,12.00
2018-04-08T00:09:57.383Z,13.00
2018-04-08T00:10:57.378Z,13.00
2018-04-08T00:11:57.370Z,12.50
2018-04-08T00:12:57.364Z,12.60
2018-04-08T00:13:57.359Z,13.00
2018-04-08T00:14:57.353Z,12.20
2018-04-08T00:15:57.346Z,11.40
2018-04-08T00:16:57.342Z,11.20
2018-04-08T00:17:57.336Z,11.50
2018-04-08T00:18:57.329Z,11.30
2018-04-08T00:19:57.322Z,10.90
2018-04-08T00:20:57.316Z,11.30
2018-04-08T00:21:57.311Z,12.00
2018-04-08T00:22:57.306Z,11.70
2018-04-08T00:23:57.299Z,11.90
2018-04-08T00:24:57.292Z,12.50
2018-04-08T00:25:57.289Z,12.90
2018-04-08T00:26:57.281Z,11.70
2018-04-08T00:27:57.274Z,13.60
2018-04-08T00:28:57.268Z,13.30
2018-04-08T00:29:57.269Z,12.80
2018-04-08T00:30:57.257Z,12.70
2018-04-08T00:31:57.250Z,12.70
2018-04-08T00:32:57.244Z,12.80
2018-04-08T00:33:57.239Z,13.40
2018-04-08T00:34:57.232Z,12.20
2018-04-08T00:35:57.225Z,12.70
2018-04-08T00:36:57.232Z,12.80
2018-04-08T00:37:57.215Z,13.40
2018-04-08T00:38:57.208Z,12.70
2018-04-08T00:39:57.201Z,12.80
2018-04-08T00:40:57.196Z,13.60
2018-04-08T00:41:57.189Z,13.00
2018-04-08T00:42:57.185Z,13.70
2018-04-08T00:43:57.176Z,13.10
2018-04-08T00:44:57.175Z,12.30
2018-04-08T00:45:57.166Z,13.30
2018-04-08T00:46:57.160Z,11.70
2018-04-08T00:47:57.152Z,11.90
2018-04-08T00:48:57.147Z,11.60
2018-04-08T00:49:57.144Z,12.50
2018-04-08T00:50:57.136Z,12.10
2018-04-08T00:51:57.134Z,12.20
2018-04-08T00:52:57.122Z,11.40
2018-04-08T00:53:57.117Z,11.40
2018-04-08T00:54:57.110Z,12.60
2018-04-08T00:55:57.104Z,12.10
2018-04-08T00:56:57.097Z,12.80
2018-04-08T00:57:57.092Z,12.50
2018-04-08T00:58:57.085Z,12.70
2018-04-08T00:59:57.078Z,13.20
2018-04-08T01:00:57.073Z,13.20
2018-04-08T01:01:57.068Z,12.10
2018-04-08T01:02:57.062Z,12.80
2018-04-08T01:03:57.154Z,12.60
2018-04-08T01:04:57.050Z,13.80
2018-04-08T01:05:57.044Z,13.00
2018-04-08T01:06:57.036Z,13.60
2018-04-08T01:07:57.033Z,13.80
2018-04-08T01:08:57.023Z,13.70
2018-04-08T01:09:57.017Z,12.70
2018-04-08T01:10:57.011Z,14.10
2018-04-08T01:11:57.004Z,14.30
2018-04-08T01:12:56.999Z,13.80
2018-04-08T01:13:56.992Z,14.70
2018-04-08T01:14:56.987Z,14.60
2018-04-08T01:15:56.979Z,13.20
2018-04-08T01:16:56.974Z,15.10
2018-04-08T01:17:56.967Z,15.30
2018-04-08T01:18:56.962Z,15.40
2018-04-08T01:19:56.954Z,15.80
2018-04-08T01:20:56.948Z,15.40
2018-04-08T01:21:56.945Z,15.20
2018-04-08T01:22:56.937Z,16.10
2018-04-08T01:23:56.928Z,16.60
2018-04-08T01:24:56.923Z,16.60
2018-04-08T01:25:56.918Z,17.30
2018-04-08T01:26:56.911Z,18.30
2018-04-08T01:27:56.904Z,18.30
2018-04-08T01:28:56.904Z,18.90
2018-04-08T01:29:56.892Z,19.10
2018-04-08T01:30:56.886Z,19.40
2018-04-08T01:31:56.881Z,19.10
2018-04-08T01:32:56.875Z,18.90
2018-04-08T01:33:56.868Z,18.60
2018-04-08T01:34:56.862Z,20.00
2018-04-08T01:35:56.856Z,19.30
2018-04-08T01:36:56.849Z,18.10
2018-04-08T01:37:56.844Z,18.80
2018-04-08T01:38:56.838Z,18.40
2018-04-08T01:39:56.832Z,19.10
2018-04-08T01:40:56.824Z,20.00
2018-04-08T01:41:56.817Z,20.80
2018-04-08T01:42:56.814Z,19.90
2018-04-08T01:43:56.805Z,21.60
2018-04-08T01:44:56.799Z,21.90
2018-04-08T01:45:56.794Z,22.10
2018-04-08T01:46:56.788Z,22.00
2018-04-08T01:47:56.780Z,22.40
2018-04-08T01:48:56.775Z,23.30
2018-04-08T01:49:56.769Z,22.90
2018-04-08T01:50:56.763Z,23.00
2018-04-08T01:51:56.756Z,23.00
2018-04-08T01:52:56.750Z,22.60
2018-04-08T01:53:56.743Z,23.70
2018-04-08T01:54:56.738Z,24.70
2018-04-08T01:55:56.730Z,26.70
2018-04-08T01:56:56.724Z,26.30
2018-04-08T01:57:56.718Z,27.30
2018-04-08T01:58:56.712Z,26.60
2018-04-08T01:59:56.705Z,28.80
2018-04-08T02:00:56.698Z,28.60
2018-04-08T02:01:56.693Z,28.90
2018-04-08T02:02:56.686Z,29.00
2018-04-08T02:03:56.680Z,30.20
2018-04-08T02:04:56.674Z,30.40
2018-04-08T02:05:56.669Z,30.00
2018-04-08T02:06:56.663Z,28.40
2018-04-08T02:07:56.655Z,30.10
2018-04-08T02:08:56.649Z,31.40
2018-04-08T02:09:56.644Z,31.60
2018-04-08T02:10:56.637Z,30.40
2018-04-08T02:11:56.630Z,32.20
2018-04-08T02:12:56.629Z,32.10
2018-04-08T02:13:56.625Z,32.20
2018-04-08T02:14:56.619Z,32.60
2018-04-08T02:15:56.615Z,31.80
2018-04-08T02:16:56.607Z,33.20
2018-04-08T02:17:56.600Z,31.20
2018-04-08T02:18:56.594Z,31.80
2018-04-08T02:19:56.588Z,30.80
2018-04-08T02:20:56.581Z,31.50
2018-04-08T02:21:56.574Z,31.30
2018-04-08T02:22:56.569Z,32.10
2018-04-08T02:23:56.563Z,32.00
2018-04-08T02:24:56.559Z,30.40
2018-04-08T02:25:56.551Z,30.50
2018-04-08T02:26:56.544Z,30.70
2018-04-08T02:27:56.537Z,29.80
2018-04-08T02:28:56.533Z,29.70
2018-04-08T02:29:56.528Z,30.10
2018-04-08T02:30:56.522Z,29.60
2018-04-08T02:31:56.516Z,30.20
2018-04-08T02:32:56.510Z,29.10
2018-04-08T02:33:56.504Z,27.40
2018-04-08T02:34:56.497Z,27.80
2018-04-08T02:35:56.492Z,27.70
2018-04-08T02:36:56.484Z,27.00
2018-04-08T02:37:56.480Z,26.00
2018-04-08T02:38:56.474Z,25.70
2018-04-08T02:39:56.468Z,27.00
2018-04-08T02:40:56.462Z,27.10
2018-04-08T02:41:56.456Z,26.60
2018-04-08T02:42:56.450Z,27.00
2018-04-08T02:43:56.442Z,27.30
2018-04-08T02:44:56.438Z,27.30
2018-04-08T02:45:56.432Z,26.30
2018-04-08T02:46:56.426Z,25.90
2018-04-08T02:47:56.420Z,26.20
2018-04-08T02:48:56.414Z,25.50
2018-04-08T02:49:56.409Z,25.30
2018-04-08T02:50:56.403Z,26.20
2018-04-08T02:51:56.397Z,24.50
2018-04-08T02:52:56.391Z,26.00
2018-04-08T02:53:56.385Z,24.60
2018-04-08T02:54:56.379Z,24.90
2018-04-08T02:55:56.372Z,24.80
2018-04-08T02:56:56.365Z,25.20
2018-04-08T02:57:56.361Z,24.90
2018-04-08T02:58:56.355Z,24.50
2018-04-08T02:59:56.349Z,25.20
2018-04-08T03:00:56.345Z,25.50
2018-04-08T03:01:56.336Z,25.10
2018-04-08T03:02:56.331Z,24.30
2018-04-08T03:03:56.325Z,24.40
2018-04-08T03:04:56.318Z,25.60
2018-04-08T03:05:56.311Z,24.80
2018-04-08T03:06:56.307Z,25.10
2018-04-08T03:07:56.299Z,24.50
2018-04-08T03:08:56.294Z,24.10
2018-04-08T03:09:56.288Z,23.80
2018-04-08T03:10:56.280Z,24.30
2018-04-08T03:11:56.275Z,24.10
2018-04-08T03:12:56.272Z,23.80
2018-04-08T03:13:56.264Z,23.60
2018-04-08T03:14:56.258Z,24.00
2018-04-08T03:15:56.252Z,23.40
2018-04-08T03:16:56.245Z,24.30
2018-04-08T03:17:56.239Z,22.40
2018-04-08T03:18:56.237Z,23.40
2018-04-08T03:19:56.229Z,24.10
2018-04-08T03:20:56.224Z,22.00
2018-04-08T03:21:56.219Z,22.50
2018-04-08T03:22:56.220Z,22.30
2018-04-08T03:23:56.211Z,23.20
2018-04-08T03:24:56.200Z,22.60
2018-04-08T03:25:56.195Z,23.30
2018-04-08T03:26:56.188Z,22.60
2018-04-08T03:27:56.181Z,22.50
2018-04-08T03:28:56.176Z,22.40
2018-04-08T03:29:56.171Z,23.30
2018-04-08T03:30:56.164Z,22.30
2018-04-08T03:31:56.161Z,21.10
2018-04-08T03:32:56.152Z,22.30
2018-04-08T03:33:56.146Z,22.80
2018-04-08T03:34:56.140Z,21.50
2018-04-08T03:35:56.133Z,21.20
2018-04-08T03:36:56.126Z,20.50
2018-04-08T03:37:56.128Z,19.50
2018-04-08T03:38:56.115Z,18.30
2018-04-08T03:39:56.109Z,17.40
2018-04-08T03:40:56.102Z,17.80
2018-04-08T03:41:56.096Z,15.20
2018-04-08T03:42:56.091Z,15.80
2018-04-08T03:43:56.085Z,16.00
2018-04-08T03:44:56.078Z,15.30
2018-04-08T03:45:56.074Z,14.40
2018-04-08T03:46:56.065Z,15.10
2018-04-08T03:47:56.058Z,13.50
2018-04-08T03:48:56.056Z,13.90
2018-04-08T03:49:56.050Z,12.00
2018-04-08T03:50:56.043Z,13.50
2018-04-08T03:51:56.034Z,12.00
2018-04-08T03:52:56.030Z,12.90
2018-04-08T03:53:56.023Z,12.60
2018-04-08T03:54:56.019Z,12.50
2018-04-08T03:55:56.011Z,12.40
2018-04-08T03:56:56.003Z,12.00
2018-04-08T03:57:56.000Z,12.00
2018-04-08T03:58:55.993Z,12.60
2018-04-08T03:59:55.984Z,12.50
2018-04-08T04:00:55.980Z,12.30
2018-04-08T04:01:55.972Z,11.40
2018-04-08T04:02:55.966Z,11.60
2018-04-08T04:03:55.961Z,11.20
2018-04-08T04:04:55.953Z,11.20
2018-04-08T04:05:55.949Z,10.30
2018-04-08T04:06:55.941Z,10.70
2018-04-08T04:07:55.934Z,10.70
2018-04-08T04:08:55.928Z,11.30
2018-04-08T04:09:55.926Z,11.10
2018-04-08T04:10:55.917Z,10.80
2018-04-08T04:11:55.910Z,11.40
2018-04-08T04:12:55.905Z,11.00
2018-04-08T04:13:55.899Z,11.60
2018-04-08T04:14:55.892Z,12.00
2018-04-08T04:15:55.884Z,11.80
2018-04-08T04:16:55.880Z,12.10
2018-04-08T04:17:55.873Z,12.10
2018-04-08T04:18:55.866Z,11.20
2018-04-08T04:19:55.859Z,11.80
2018-04-08T04:20:55.854Z,11.90
2018-04-08T04:21:55.849Z,11.80
2018-04-08T04:22:55.842Z,11.60
2018-04-08T04:23:55.835Z,12.40
2018-04-08T04:24:55.829Z,11.90
2018-04-08T04:25:55.823Z,11.80
2018-04-08T04:26:55.818Z,12.30
2018-04-08T04:27:55.810Z,11.20
2018-04-08T04:28:55.804Z,12.50
2018-04-08T04:29:55.803Z,12.10
2018-04-08T04:30:55.792Z,11.70
2018-04-08T04:31:55.785Z,12.00
2018-04-08T04:32:55.783Z,12.30
2018-04-08T04:33:55.774Z,12.20
2018-04-08T04:34:55.769Z,11.50
2018-04-08T04:35:55.760Z,11.90
2018-04-08T04:36:55.755Z,12.40
2018-04-08T04:37:55.748Z,13.30
2018-04-08T04:38:55.743Z,12.40
2018-04-08T04:39:55.736Z,13.80
2018-04-08T04:40:55.730Z,12.60
2018-04-08T04:41:55.723Z,13.50
2018-04-08T04:42:55.717Z,12.80
2018-04-08T04:43:55.710Z,13.30
2018-04-08T04:44:55.704Z,13.70
2018-04-08T04:45:55.701Z,13.20
2018-04-08T04:46:55.692Z,14.10
2018-04-08T04:47:55.685Z,14.70
2018-04-08T04:48:55.678Z,14.40
2018-04-08T04:49:55.673Z,14.50
2018-04-08T04:50:55.666Z,14.60
2018-04-08T04:51:55.659Z,13.90
2018-04-08T04:52:55.653Z,13.70
2018-04-08T04:53:55.648Z,13.50
2018-04-08T04:54:55.642Z,14.70
2018-04-08T04:55:55.634Z,15.00
2018-04-08T04:56:55.627Z,15.00
2018-04-08T04:57:55.623Z,14.70
2018-04-08T04:58:55.615Z,14.20
2018-04-08T04:59:55.610Z,13.90
2018-04-08T05:00:55.603Z,15.20
2018-04-08T05:01:55.596Z,13.60
2018-04-08T05:02:55.590Z,14.60
2018-04-08T05:03:55.584Z,14.90
2018-04-08T05:04:55.576Z,15.10
2018-04-08T05:05:55.570Z,14.50
2018-04-08T05:06:55.564Z,15.50
2018-04-08T05:07:55.557Z,15.60
2018-04-08T05:08:55.551Z,14.90
2018-04-08T05:09:55.544Z,14.40
2018-04-08T05:10:55.538Z,15.50
2018-04-08T05:11:55.547Z,15.30
2018-04-08T05:12:55.524Z,14.40
2018-04-08T05:13:55.531Z,14.70
2018-04-08T05:14:55.512Z,14.80
2018-04-08T05:15:55.510Z,14.40
2018-04-08T05:16:55.498Z,15.20
2018-04-08T05:17:55.492Z,15.00
2018-04-08T05:18:55.485Z,15.00
2018-04-08T05:19:55.478Z,16.10
2018-04-08T05:20:55.472Z,15.90
2018-04-08T05:21:55.465Z,14.90
2018-04-08T05:22:55.459Z,14.60
2018-04-08T05:23:55.452Z,15.70
2018-04-08T05:24:55.446Z,16.20
2018-04-08T05:25:55.439Z,15.30
2018-04-08T05:26:55.434Z,15.50
2018-04-08T05:27:55.425Z,15.50
2018-04-08T05:28:55.418Z,14.80
2018-04-08T05:29:55.414Z,15.20
2018-04-08T05:30:55.406Z,15.50
2018-04-08T05:31:55.399Z,15.20
2018-04-08T05:32:55.392Z,14.90
2018-04-08T05:33:55.386Z,15.30
2018-04-08T05:34:55.382Z,14.60
2018-04-08T05:35:55.376Z,15.10
2018-04-08T05:36:55.366Z,14.70
2018-04-08T05:37:55.359Z,14.90
2018-04-08T05:38:55.353Z,16.10
2018-04-08T05:39:55.345Z,16.20
2018-04-08T05:40:55.339Z,15.40
2018-04-08T05:41:55.332Z,16.50
2018-04-08T05:42:55.315Z,16.70
2018-04-08T05:43:55.309Z,17.50
2018-04-08T05:44:55.301Z,17.40
2018-04-08T05:45:55.296Z,18.30
2018-04-08T05:46:55.290Z,16.80
2018-04-08T05:47:55.280Z,18.20
2018-04-08T05:48:55.277Z,16.80
2018-04-08T05:49:55.268Z,18.70
2018-04-08T05:50:55.261Z,17.30
2018-04-08T05:51:55.253Z,18.30
2018-04-08T05:52:55.248Z,17.90
2018-04-08T05:53:55.242Z,17.80
2018-04-08T05:54:55.234Z,17.20
2018-04-08T05:55:55.227Z,16.80
2018-04-08T05:56:55.220Z,17.20
2018-04-08T05:57:55.213Z,17.70
2018-04-08T05:58:55.207Z,17.20
2018-04-08T05:59:55.204Z,16.70
2018-04-08T06:00:55.192Z,16.80
2018-04-08T06:01:55.187Z,17.00
2018-04-08T06:02:55.180Z,15.90
2018-04-08T06:03:55.172Z,16.90
2018-04-08T06:04:55.166Z,16.90
2018-04-08T06:05:55.164Z,17.30
2018-04-08T06:06:55.156Z,16.20
2018-04-08T06:07:55.145Z,16.70
2018-04-08T06:08:55.139Z,16.60
2018-04-08T06:09:55.133Z,16.90
2018-04-08T06:10:55.127Z,16.80
2018-04-08T06:11:55.120Z,17.80
2018-04-08T06:12:55.112Z,16.70
2018-04-08T06:13:55.106Z,18.20
2018-04-08T06:14:55.104Z,17.70
2018-04-08T06:15:55.091Z,17.00
2018-04-08T06:16:55.086Z,17.50
2018-04-08T06:17:55.079Z,17.10
2018-04-08T06:18:55.073Z,18.50
2018-04-08T06:19:55.064Z,16.80
2018-04-08T06:20:55.058Z,16.70
2018-04-08T06:21:55.050Z,17.30
2018-04-08T06:22:55.046Z,17.40
2018-04-08T06:23:55.036Z,16.10
2018-04-08T06:24:55.071Z,17.50
2018-04-08T06:25:55.026Z,16.20
2018-04-08T06:26:55.018Z,16.80
2018-04-08T06:27:55.010Z,16.30
2018-04-08T06:28:55.003Z,17.10
2018-04-08T06:29:54.995Z,15.80
2018-04-08T06:30:54.989Z,15.40
2018-04-08T06:31:54.981Z,15.40
2018-04-08T06:32:54.976Z,15.20
2018-04-08T06:33:54.970Z,15.10
2018-04-08T06:34:54.961Z,14.20
2018-04-08T06:35:54.953Z,14.80
2018-04-08T06:36:54.947Z,15.30
2018-04-08T06:37:54.941Z,14.50
2018-04-08T06:38:54.935Z,14.30
2018-04-08T06:39:54.927Z,14.90
2018-04-08T06:40:54.919Z,13.40
2018-04-08T06:41:54.916Z,14.50
2018-04-08T06:42:54.910Z,15.00
2018-04-08T06:43:54.900Z,14.50
2018-04-08T06:44:54.893Z,14.50
2018-04-08T06:45:54.885Z,14.90
2018-04-08T06:46:54.880Z,14.00
2018-04-08T06:47:54.870Z,14.70
2018-04-08T06:48:54.864Z,14.10
2018-04-08T06:49:54.857Z,14.50
2018-04-08T06:50:54.852Z,14.30
2018-04-08T06:51:54.844Z,15.10
2018-04-08T06:52:54.838Z,12.80
2018-04-08T06:53:54.830Z,14.40
2018-04-08T06:54:54.823Z,14.00
2018-04-08T06:55:54.815Z,14.00
2018-04-08T06:56:54.809Z,13.70
2018-04-08T06:57:54.803Z,14.50
2018-04-08T06:58:54.795Z,15.20
2018-04-08T06:59:54.788Z,15.20
2018-04-08T07:00:54.782Z,15.00
2018-04-08T07:01:54.776Z,14.20
2018-04-08T07:02:54.772Z,15.20
2018-04-08T07:03:54.763Z,15.10
2018-04-08T07:04:54.754Z,14.90
2018-04-08T07:05:54.749Z,15.20
2018-04-08T07:06:54.742Z,15.20
2018-04-08T07:07:54.733Z,14.70
2018-04-08T07:08:54.726Z,14.50
2018-04-08T07:09:54.723Z,14.70
2018-04-08T07:10:54.713Z,14.50
2018-04-08T07:11:54.705Z,14.30
2018-04-08T07:12:54.698Z,15.60
2018-04-08T07:13:54.692Z,14.90
2018-04-08T07:14:54.685Z,14.50
2018-04-08T07:15:54.677Z,15.30
2018-04-08T07:16:54.671Z,15.20
2018-04-08T07:17:54.665Z,14.20
2018-04-08T07:18:54.657Z,14.80
2018-04-08T07:19:54.650Z,16.40
2018-04-08T07:20:54.645Z,15.10
2018-04-08T07:21:54.638Z,15.40
2018-04-08T07:22:54.630Z,14.90
2018-04-08T07:23:54.622Z,15.30
2018-04-08T07:24:54.618Z,15.80
2018-04-08T07:25:54.609Z,15.20
2018-04-08T07:26:54.601Z,15.10
2018-04-08T07:27:54.597Z,16.00
2018-04-08T07:28:54.587Z,14.90
2018-04-08T07:29:54.580Z,16.40
2018-04-08T07:30:54.573Z,16.10
2018-04-08T07:31:54.566Z,16.10
2018-04-08T07:32:54.558Z,16.40
2018-04-08T07:33:54.552Z,15.50
2018-04-08T07:34:54.545Z,15.30
2018-04-08T07:35:54.537Z,14.90
2018-04-08T07:36:54.532Z,15.20
2018-04-08T07:37:54.524Z,15.20
2018-04-08T07:38:54.518Z,15.60
2018-04-08T07:39:54.510Z,16.30
2018-04-08T07:40:54.502Z,17.10
2018-04-08T07:41:54.497Z,17.00
2018-04-08T07:42:54.489Z,17.00
2018-04-08T07:43:54.481Z,16.00
2018-04-08T07:44:54.474Z,16.60
2018-04-08T07:45:54.467Z,16.80
2018-04-08T07:46:54.463Z,15.60
2018-04-08T07:47:54.452Z,15.70
2018-04-08T07:48:54.445Z,15.80
2018-04-08T07:49:54.478Z,15.60
2018-04-08T07:50:54.435Z,14.80
2018-04-08T07:51:54.424Z,16.90
2018-04-08T07:52:54.420Z,17.10
2018-04-08T07:53:54.410Z,17.40
2018-04-08T07:54:54.404Z,15.90
2018-04-08T07:55:54.397Z,17.60
2018-04-08T07:56:54.393Z,17.60
2018-04-08T07:57:54.382Z,18.20
2018-04-08T07:58:54.381Z,16.00
2018-04-08T07:59:54.367Z,15.50
2018-04-08T08:00:54.361Z,16.60
2018-04-08T08:01:54.354Z,15.90
2018-04-08T08:02:54.346Z,16.40
2018-04-08T08:03:54.338Z,15.50
2018-04-08T08:04:54.333Z,15.80
2018-04-08T08:05:54.325Z,15.60
2018-04-08T08:06:54.317Z,16.20
2018-04-08T08:07:54.310Z,16.80
2018-04-08T08:08:54.303Z,15.80
2018-04-08T08:09:54.297Z,16.30
2018-04-08T08:10:54.288Z,16.30
2018-04-08T08:11:54.280Z,16.50
2018-04-08T08:12:54.273Z,16.80
2018-04-08T08:13:54.268Z,16.90
2018-04-08T08:14:54.261Z,16.10
2018-04-08T08:15:54.251Z,16.10
2018-04-08T08:16:54.246Z,16.40
2018-04-08T08:17:54.239Z,18.30
2018-04-08T08:18:54.230Z,18.40
2018-04-08T08:19:54.223Z,17.10
2018-04-08T08:20:54.216Z,16.50
2018-04-08T08:21:54.209Z,16.80
2018-04-08T08:22:54.205Z,16.60
2018-04-08T08:23:54.193Z,16.80
2018-04-08T08:24:54.186Z,15.50
2018-04-08T08:25:54.180Z,16.00
2018-04-08T08:26:54.173Z,15.40
2018-04-08T08:27:54.164Z,15.00
2018-04-08T08:28:54.157Z,16.80
2018-04-08T08:29:54.150Z,15.30
2018-04-08T08:30:54.143Z,15.50
2018-04-08T08:31:54.154Z,15.40
2018-04-08T08:32:54.129Z,16.30
2018-04-08T08:33:54.122Z,16.20
2018-04-08T08:34:54.114Z,16.90
2018-04-08T08:35:54.108Z,16.70
2018-04-08T08:36:54.099Z,16.20
2018-04-08T08:37:54.092Z,16.90
2018-04-08T08:38:54.084Z,17.90
2018-04-08T08:39:54.077Z,17.50
2018-04-08T08:40:54.072Z,16.30
2018-04-08T08:41:54.063Z,16.90
2018-04-08T08:42:54.056Z,17.00
2018-04-08T08:43:54.048Z,16.50
2018-04-08T08:44:54.041Z,17.40
2018-04-08T08:45:54.034Z,17.00
2018-04-08T08:46:54.027Z,17.90
2018-04-08T08:47:54.019Z,16.70
2018-04-08T08:48:54.012Z,16.90
2018-04-08T08:49:54.005Z,15.80
2018-04-08T08:50:54.000Z,17.20
2018-04-08T08:51:53.990Z,16.30
2018-04-08T08:52:53.984Z,16.70
2018-04-08T08:53:53.975Z,16.80
2018-04-08T08:54:53.990Z,16.10
2018-04-08T08:55:53.960Z,17.40
2018-04-08T08:56:53.956Z,17.20
2018-04-08T08:57:53.946Z,15.50
2018-04-08T08:58:53.941Z,16.20
2018-04-08T08:59:53.931Z,16.00
2018-04-08T09:00:53.925Z,15.80
2018-04-08T09:01:53.918Z,16.30
2018-04-08T09:02:53.909Z,16.70
2018-04-08T09:03:53.902Z,17.30
2018-04-08T09:04:53.895Z,17.20
2018-04-08T09:05:53.887Z,16.80
2018-04-08T09:06:53.879Z,17.50
2018-04-08T09:07:53.872Z,16.90
2018-04-08T09:08:53.864Z,17.30
2018-04-08T09:09:53.858Z,17.40
2018-04-08T09:10:53.852Z,17.80
2018-04-08T09:11:53.843Z,17.80
2018-04-08T09:12:53.835Z,18.60
2018-04-08T09:13:53.828Z,17.70
2018-04-08T09:14:53.821Z,16.90
2018-04-08T09:15:53.814Z,16.70
2018-04-08T09:16:53.805Z,17.00
2018-04-08T09:17:53.799Z,16.50
2018-04-08T09:18:53.792Z,18.10
2018-04-08T09:19:53.783Z,16.10
2018-04-08T09:20:53.776Z,17.30
2018-04-08T09:21:53.770Z,16.80
2018-04-08T09:22:53.762Z,17.30
2018-04-08T09:23:53.756Z,18.10
2018-04-08T09:24:53.749Z,17.20
2018-04-08T09:25:53.741Z,17.30
2018-04-08T09:26:53.735Z,17.10
2018-04-08T09:27:53.728Z,16.00
2018-04-08T09:28:53.720Z,16.40
2018-04-08T09:29:53.712Z,16.50
2018-04-08T09:30:53.705Z,17.30
2018-04-08T09:31:53.697Z,17.00
2018-04-08T09:32:53.690Z,17.70
2018-04-08T09:33:53.783Z,18.10
2018-04-08T09:34:53.677Z,18.80
2018-04-08T09:35:53.669Z,19.40
2018-04-08T09:36:53.662Z,17.60
2018-04-08T09:37:53.657Z,18.10
2018-04-08T09:38:53.648Z,18.80
2018-04-08T09:39:53.740Z,17.80
2018-04-08T09:40:53.632Z,18.90
2018-04-08T09:41:53.626Z,19.00
2018-04-08T09:42:53.620Z,18.70
2018-04-08T09:43:53.611Z,18.20
2018-04-08T09:44:53.605Z,19.80
2018-04-08T09:45:53.598Z,18.50
2018-04-08T09:46:53.592Z,20.20
2018-04-08T09:47:53.583Z,19.20
2018-04-08T09:48:53.577Z,20.40
2018-04-08T09:49:53.569Z,19.10
2018-04-08T09:50:53.562Z,21.20
2018-04-08T09:51:53.554Z,19.10
2018-04-08T09:52:53.548Z,20.40
2018-04-08T09:53:53.540Z,20.50
2018-04-08T09:54:53.534Z,20.20
2018-04-08T09:55:53.527Z,20.00
2018-04-08T09:56:53.519Z,19.30
2018-04-08T09:57:53.512Z,18.60
2018-04-08T09:58:53.505Z,19.80
2018-04-08T09:59:53.498Z,20.10
2018-04-08T10:00:53.491Z,19.70
2018-04-08T10:01:53.484Z,18.80
2018-04-08T10:02:53.477Z,17.90
2018-04-08T10:03:53.471Z,19.50
2018-04-08T10:04:53.463Z,19.40
2018-04-08T10:05:53.458Z,19.30
2018-04-08T10:06:53.449Z,19.70
2018-04-08T10:07:53.441Z,19.10
2018-04-08T10:08:53.436Z,19.00
2018-04-08T10:09:53.428Z,19.10
2018-04-08T10:10:53.421Z,18.90
2018-04-08T10:11:53.413Z,18.70
2018-04-08T10:12:53.428Z,18.60
2018-04-08T10:13:53.400Z,18.80
2018-04-08T10:14:53.410Z,17.90
2018-04-08T10:15:53.386Z,18.30
2018-04-08T10:16:53.380Z,17.40
2018-04-08T10:17:53.372Z,18.50
2018-04-08T10:18:53.367Z,19.60
2018-04-08T10:19:53.359Z,17.90
2018-04-08T10:20:53.353Z,18.40
2018-04-08T10:21:53.345Z,18.60
2018-04-08T10:22:53.342Z,18.90
2018-04-08T10:23:53.332Z,18.80
2018-04-08T10:24:53.373Z,19.40
2018-04-08T10:25:53.318Z,18.50
2018-04-08T10:26:53.314Z,19.00
2018-04-08T10:27:53.305Z,19.10
2018-04-08T10:28:53.297Z,18.70
2018-04-08T10:29:53.291Z,18.70
2018-04-08T10:30:53.290Z,18.00
2018-04-08T10:31:53.278Z,18.80
2018-04-08T10:32:53.271Z,18.10
2018-04-08T10:33:53.266Z,17.50
2018-04-08T10:34:53.259Z,16.90
2018-04-08T10:35:53.252Z,16.80
2018-04-08T10:36:53.247Z,17.60
2018-04-08T10:37:53.238Z,16.70
2018-04-08T10:38:53.232Z,16.00
2018-04-08T10:39:53.224Z,15.00
2018-04-08T10:40:53.218Z,15.50
2018-04-08T10:41:53.211Z,14.80
2018-04-08T10:42:53.204Z,15.50
2018-04-08T10:43:53.202Z,14.70
2018-04-08T10:44:53.191Z,16.00
2018-04-08T10:45:53.186Z,13.80
2018-04-08T10:46:53.179Z,14.30
2018-04-08T10:47:53.172Z,13.90
2018-04-08T10:48:53.165Z,13.60
2018-04-08T10:49:53.159Z,12.70
2018-04-08T10:50:53.152Z,14.50
2018-04-08T10:51:53.145Z,14.10
2018-04-08T10:52:53.140Z,14.30
2018-04-08T10:53:53.134Z,13.70
2018-04-08T10:54:53.127Z,13.80
2018-04-08T10:55:53.119Z,14.20
2018-04-08T10:56:53.113Z,13.10
2018-04-08T10:57:53.109Z,13.60
2018-04-08T10:58:53.101Z,13.60
2018-04-08T10:59:53.093Z,13.90
2018-04-08T11:00:53.087Z,13.70
2018-04-08T11:01:53.083Z,13.10
2018-04-08T11:02:53.074Z,12.70
2018-04-08T11:03:53.067Z,13.00
2018-04-08T11:04:53.126Z,12.50
2018-04-08T11:05:53.055Z,12.60
2018-04-08T11:06:53.049Z,12.50
2018-04-08T11:07:53.044Z,12.20
2018-04-08T11:08:53.037Z,13.20
2018-04-08T11:09:53.030Z,12.80
2018-04-08T11:10:53.032Z,11.40
2018-04-08T11:11:53.017Z,11.60
2018-04-08T11:12:53.011Z,12.20
2018-04-08T11:13:53.005Z,12.40
2018-04-08T11:14:52.999Z,12.20
2018-04-08T11:15:52.991Z,12.30
2018-04-08T11:16:52.999Z,12.10
2018-04-08T11:17:52.979Z,12.60
2018-04-08T11:18:52.974Z,12.30
2018-04-08T11:19:52.966Z,12.30
2018-04-08T11:20:52.961Z,12.10
2018-04-08T11:21:52.954Z,11.80
2018-04-08T11:22:52.950Z,11.70
2018-04-08T11:23:52.943Z,11.90
2018-04-08T11:24:52.935Z,12.40
2018-04-08T11:25:52.933Z,13.00
2018-04-08T11:26:52.923Z,11.60
2018-04-08T11:27:52.916Z,12.70
2018-04-08T11:28:52.911Z,12.60
2018-04-08T11:29:52.905Z,12.30
2018-04-08T11:30:52.899Z,12.10
2018-04-08T11:31:52.893Z,13.20
2018-04-08T11:32:52.886Z,13.00
2018-04-08T11:33:52.882Z,11.50
2018-04-08T11:34:52.875Z,11.10
2018-04-08T11:35:52.871Z,13.00
2018-04-08T11:36:52.862Z,12.10
2018-04-08T11:37:52.856Z,11.60
2018-04-08T11:38:52.851Z,12.20
2018-04-08T11:39:52.849Z,12.40
2018-04-08T11:40:52.839Z,12.80
2018-04-08T11:41:52.833Z,12.20
2018-04-08T11:42:52.829Z,11.80
2018-04-08T11:43:52.820Z,11.70
2018-04-08T11:44:52.816Z,11.90
2018-04-08T11:45:52.811Z,12.30
2018-04-08T11:46:52.805Z,12.60
2018-04-08T11:47:52.797Z,11.40
2018-04-08T11:48:52.792Z,12.30
2018-04-08T11:49:52.787Z,12.40
2018-04-08T11:50:52.780Z,12.60
2018-04-08T11:51:52.776Z,14.10
2018-04-08T11:52:52.769Z,14.80
2018-04-08T11:53:52.766Z,14.70
2018-04-08T11:54:52.760Z,13.40
2018-04-08T11:55:52.751Z,13.00
2018-04-08T11:56:52.747Z,14.00
2018-04-08T11:57:52.740Z,14.10
2018-04-08T11:58:52.734Z,15.30
2018-04-08T11:59:52.728Z,15.90
2018-04-08T12:00:52.723Z,14.50
2018-04-08T12:01:52.716Z,14.80
2018-04-08T12:02:52.712Z,14.00
2018-04-08T12:03:52.704Z,13.60
2018-04-08T12:04:52.699Z,13.80
2018-04-08T12:05:52.694Z,13.60
2018-04-08T12:06:52.689Z,14.50
2018-04-08T12:07:52.684Z,13.90
2018-04-08T12:08:52.677Z,14.40
2018-04-08T12:09:52.674Z,14.70
2018-04-08T12:10:52.665Z,14.10
2018-04-08T12:11:52.660Z,13.30
2018-04-08T12:12:52.654Z,12.60
2018-04-08T12:13:52.648Z,13.90
2018-04-08T12:14:52.643Z,12.90
2018-04-08T12:15:52.638Z,13.40
2018-04-08T12:16:52.631Z,12.60
2018-04-08T12:17:52.627Z,13.70
2018-04-08T12:18:52.621Z,13.40
2018-04-08T12:19:52.615Z,13.00
2018-04-08T12:20:52.612Z,14.10
2018-04-08T12:21:52.604Z,13.40
2018-04-08T12:22:52.599Z,14.40
2018-04-08T12:23:52.595Z,13.60
2018-04-08T12:24:52.588Z,13.30
2018-04-08T12:25:52.583Z,12.00
2018-04-08T12:26:52.583Z,13.00
2018-04-08T12:27:52.573Z,13.10
2018-04-08T12:28:52.566Z,13.40
2018-04-08T12:29:52.562Z,13.40
2018-04-08T12:30:52.557Z,13.60
2018-04-08T12:31:52.553Z,12.20
2018-04-08T12:32:52.547Z,12.60
2018-04-08T12:33:52.542Z,12.00
2018-04-08T12:34:52.536Z,12.00
2018-04-08T12:35:52.532Z,12.50
2018-04-08T12:36:52.528Z,11.60
2018-04-08T12:37:52.522Z,12.20
2018-04-08T12:38:52.517Z,11.60
2018-04-08T12:39:52.513Z,11.40
2018-04-08T12:40:52.508Z,12.40
2018-04-08T12:41:52.504Z,11.60
2018-04-08T12:42:52.500Z,12.20
2018-04-08T12:43:52.495Z,13.10
2018-04-08T12:44:52.490Z,13.20
2018-04-08T12:45:52.486Z,13.10
2018-04-08T12:46:52.482Z,12.70
2018-04-08T12:47:52.479Z,12.00
2018-04-08T12:48:52.473Z,12.50
2018-04-08T12:49:52.469Z,11.30
2018-04-08T12:50:52.466Z,11.80
2018-04-08T12:51:52.517Z,11.80
2018-04-08T12:52:52.458Z,12.10